createdAt,value
2018-09-20T00:02:26.286Z,90.90
2018-09-20T00:04:55.529Z,90.95
2018-09-20T00:07:24.961Z,90.90
2018-09-20T00:09:54.068Z,91.05
2018-09-20T00:12:23.178Z,91.41
2018-09-20T00:14:52.240Z,90.56
2018-09-20T00:17:21.302Z,91.48
2018-09-20T00:19:50.394Z,91.59
2018-09-20T00:22:19.518Z,91.32
2018-09-20T00:24:48.576Z,91.25
2018-09-20T00:27:17.866Z,91.44
2018-09-20T00:29:47.842Z,91.72
2018-09-20T00:32:17.965Z,90.82
2018-09-20T00:34:47.821Z,91.59
2018-09-20T00:37:17.969Z,90.75
2018-09-20T00:39:47.838Z,90.15
2018-09-20T00:42:16.933Z,90.79
2018-09-20T00:44:45.979Z,90.12
2018-09-20T00:47:15.027Z,90.04
2018-09-20T00:49:44.128Z,90.51
2018-09-20T00:52:13.326Z,90.39
2018-09-20T00:54:42.455Z,90.38
2018-09-20T05:51:52.666Z,94.04
2018-09-20T05:54:21.856Z,93.96
2018-09-20T05:56:51.083Z,93.97
2018-09-20T05:59:20.234Z,93.60
2018-09-20T06:01:49.261Z,92.99
2018-09-20T06:04:18.406Z,93.49
2018-09-20T06:06:47.547Z,93.50
2018-09-20T06:09:16.657Z,92.89
2018-09-20T06:11:45.787Z,92.59
2018-09-20T06:14:14.919Z,93.22
2018-09-20T06:16:44.186Z,93.62
2018-09-20T06:19:13.294Z,94.00
2018-09-20T06:21:42.573Z,93.89
2018-09-20T06:24:11.681Z,94.23
2018-09-20T06:26:40.820Z,94.05
2018-09-20T06:29:09.945Z,94.13
2018-09-20T06:31:39.168Z,93.92
2018-09-20T06:34:08.298Z,94.74
2018-09-20T06:36:37.441Z,95.03
2018-09-20T06:39:09.730Z,94.63
2018-09-20T06:41:38.966Z,95.79
2018-09-20T06:44:14.708Z,95.77
2018-09-20T06:46:43.772Z,95.65
2018-09-20T06:49:13.005Z,96.06
2018-09-20T06:51:42.107Z,96.22
2018-09-20T06:54:11.256Z,95.84
2018-09-20T06:56:40.720Z,96.16
2018-09-20T06:59:09.792Z,96.07
2018-09-20T07:01:38.936Z,96.20
2018-09-20T07:04:08.085Z,95.77
2018-09-20T07:06:37.233Z,95.12
2018-09-20T07:09:10.189Z,95.06
2018-09-20T07:11:39.370Z,94.89
2018-09-20T07:14:08.521Z,94.64
2018-09-20T07:16:37.630Z,95.00
2018-09-20T07:19:06.782Z,95.17
2018-09-20T07:21:35.882Z,94.63
2018-09-20T07:24:04.977Z,94.00
2018-09-20T07:26:34.072Z,94.05
2018-09-20T07:32:02.747Z,93.47
2018-09-20T07:34:31.949Z,93.48
2018-09-20T07:37:01.077Z,92.62
2018-09-20T07:39:30.221Z,92.26
2018-09-20T07:41:59.484Z,90.67
2018-09-20T07:44:28.641Z,89.92
2018-09-20T07:46:58.801Z,89.28
2018-09-20T07:49:27.920Z,88.38
2018-09-20T07:51:57.860Z,86.84
2018-09-20T07:54:27.780Z,86.20
2018-09-20T07:56:56.858Z,86.78
2018-09-20T07:59:26.069Z,86.88
2018-09-20T08:01:55.158Z,86.66
2018-09-20T08:04:24.266Z,84.37
2018-09-20T08:06:53.409Z,84.69
2018-09-20T08:09:22.526Z,83.57
2018-09-20T08:11:51.650Z,82.62
2018-09-20T08:14:20.766Z,82.59
2018-09-20T08:16:49.926Z,82.33
2018-09-20T08:19:19.044Z,83.30
2018-09-20T08:21:48.304Z,83.03
2018-09-20T08:24:17.411Z,82.11
2018-09-20T08:26:46.536Z,81.77
2018-09-20T08:29:15.656Z,81.83
2018-09-20T08:31:44.750Z,83.27
2018-09-20T08:34:13.858Z,82.64
2018-09-20T08:36:43.051Z,81.58
2018-09-20T08:39:12.831Z,80.41
2018-09-20T08:41:41.982Z,79.75
2018-09-20T08:44:11.079Z,79.02
2018-09-20T08:46:40.161Z,78.17
2018-09-20T08:49:09.284Z,77.58
2018-09-20T08:51:38.401Z,78.37
2018-09-20T08:54:07.554Z,76.64
2018-09-20T08:56:36.692Z,76.87
2018-09-20T08:59:05.810Z,76.66
2018-09-20T09:01:34.940Z,75.53
2018-09-20T09:04:04.068Z,75.83
2018-09-20T09:06:33.168Z,74.26
2018-09-20T09:09:02.254Z,74.00
2018-09-20T09:11:31.314Z,74.89
2018-09-20T09:14:00.374Z,72.75
2018-09-20T09:16:29.439Z,73.86
2018-09-20T09:18:58.536Z,73.59
2018-09-20T09:21:28.706Z,71.32
2018-09-20T09:23:58.600Z,70.16
2018-09-20T09:26:28.821Z,68.72
2018-09-20T09:28:58.696Z,70.45
2018-09-20T09:31:28.786Z,69.07
2018-09-20T09:33:58.922Z,70.08
2018-09-20T09:36:28.838Z,68.93
2018-09-20T09:38:58.834Z,70.14
2018-09-20T09:41:28.836Z,70.54
2018-09-20T09:43:58.836Z,69.86
2018-09-20T09:46:28.910Z,67.67
2018-09-20T09:48:58.790Z,69.77
2018-09-20T09:51:28.904Z,68.17
2018-09-20T09:53:59.065Z,70.33
2018-09-20T09:56:29.144Z,70.03
2018-09-20T09:58:59.094Z,69.20
2018-09-20T10:01:28.945Z,67.45
2018-09-20T10:03:57.959Z,66.72
2018-09-20T10:06:27.064Z,67.41
2018-09-20T10:08:56.283Z,67.48
2018-09-20T10:11:25.351Z,67.68
2018-09-20T10:13:54.760Z,67.81
2018-09-20T10:16:23.817Z,69.19
2018-09-20T10:18:52.921Z,67.05
2018-09-20T10:21:22.026Z,67.21
2018-09-20T10:23:51.176Z,66.12
2018-09-20T10:26:20.227Z,64.33
2018-09-20T10:28:49.299Z,63.75
2018-09-20T10:31:18.429Z,64.42
2018-09-20T10:33:47.719Z,63.91
2018-09-20T10:36:16.865Z,63.26
2018-09-20T10:38:46.112Z,64.10
2018-09-20T10:41:15.193Z,64.27
2018-09-20T10:43:44.281Z,62.85
2018-09-20T10:46:13.329Z,62.73
2018-09-20T10:48:42.424Z,62.95
2018-09-20T10:51:11.504Z,61.82
2018-09-20T10:53:40.606Z,63.94
2018-09-20T10:56:09.675Z,63.61
2018-09-20T10:58:38.871Z,63.38
2018-09-20T11:01:07.926Z,61.63
2018-09-20T11:03:37.009Z,60.90
2018-09-20T11:06:06.113Z,60.10
2018-09-20T11:08:35.205Z,61.45
2018-09-20T11:11:04.338Z,62.05
2018-09-20T11:13:33.417Z,58.93
2018-09-20T11:16:02.523Z,60.56
2018-09-20T11:18:31.619Z,59.55
2018-09-20T11:21:00.771Z,60.42
2018-09-20T11:23:29.901Z,60.08
2018-09-20T11:25:59.880Z,59.01
2018-09-20T11:28:29.759Z,61.35
2018-09-20T11:30:59.793Z,60.30
2018-09-20T11:33:29.007Z,59.83
2018-09-20T11:35:58.095Z,59.71
2018-09-20T11:38:27.264Z,59.70
2018-09-20T11:40:56.393Z,58.08
2018-09-20T11:43:25.568Z,58.46
2018-09-20T11:45:54.702Z,55.32
2018-09-20T11:48:23.794Z,56.92
2018-09-20T11:50:52.940Z,56.33
2018-09-20T11:53:22.283Z,55.97
2018-09-20T11:55:51.410Z,55.88
2018-09-20T11:58:20.542Z,56.12
2018-09-20T12:00:49.633Z,53.40
2018-09-20T12:03:18.704Z,54.41
2018-09-20T12:05:47.794Z,53.40
2018-09-20T12:08:16.916Z,53.77
2018-09-20T12:10:46.042Z,53.54
2018-09-20T12:13:15.138Z,54.50
2018-09-20T12:15:44.274Z,54.02
2018-09-20T12:18:13.405Z,53.88
2018-09-20T12:20:42.560Z,54.30
2018-09-20T12:23:11.592Z,55.21
2018-09-20T12:25:40.947Z,54.76
2018-09-20T12:28:10.037Z,55.62
2018-09-20T12:30:39.120Z,53.95
2018-09-20T12:33:08.204Z,54.29
2018-09-20T12:35:37.416Z,52.25
2018-09-20T12:38:06.478Z,52.72
2018-09-20T12:40:35.604Z,51.24
2018-09-20T12:43:04.756Z,50.35
2018-09-20T12:45:33.853Z,51.07
2018-09-20T12:48:02.924Z,54.19
2018-09-20T12:50:32.012Z,55.25
2018-09-20T12:53:01.116Z,55.99
2018-09-20T12:55:30.500Z,54.16
2018-09-20T12:58:00.601Z,54.73
2018-09-20T13:00:30.786Z,53.38
2018-09-20T13:03:00.693Z,55.74
2018-09-20T13:05:30.746Z,56.20
2018-09-20T13:08:00.622Z,54.95
2018-09-20T13:10:29.769Z,53.93
2018-09-20T13:12:58.994Z,55.17
2018-09-20T13:15:28.073Z,54.23
2018-09-20T13:17:57.127Z,54.89
2018-09-20T13:20:26.261Z,54.75
2018-09-20T13:22:55.300Z,53.95
2018-09-20T13:25:24.653Z,51.08
2018-09-20T13:27:53.675Z,53.90
2018-09-20T13:30:22.734Z,55.25
2018-09-20T13:32:51.816Z,52.88
2018-09-20T13:35:20.864Z,54.42
2018-09-20T13:37:49.943Z,52.00
2018-09-20T13:40:19.124Z,50.94
2018-09-20T13:42:48.293Z,50.50
2018-09-20T13:45:17.441Z,52.87
2018-09-20T13:47:46.545Z,54.09
2018-09-20T13:50:15.671Z,53.93
2018-09-20T13:52:44.891Z,53.86
2018-09-20T13:55:14.071Z,54.54
2018-09-20T13:57:43.217Z,53.75
2018-09-20T14:00:12.440Z,52.92
2018-09-20T14:02:41.568Z,53.07
2018-09-20T14:05:11.061Z,52.47
2018-09-20T14:07:40.232Z,52.04
2018-09-20T14:10:10.283Z,52.10
2018-09-20T14:12:40.303Z,52.44
2018-09-20T14:15:09.417Z,52.48
2018-09-20T14:17:38.612Z,50.15
2018-09-20T14:20:07.875Z,51.23
2018-09-20T14:22:37.009Z,49.44
2018-09-20T14:25:06.142Z,51.99
2018-09-20T14:27:35.301Z,50.35
2018-09-20T14:30:04.481Z,49.20
2018-09-20T14:32:33.563Z,49.92
2018-09-20T14:35:02.679Z,49.63
2018-09-20T14:37:31.840Z,47.29
2018-09-20T14:40:01.607Z,46.84
2018-09-20T14:42:31.631Z,46.00
2018-09-20T14:45:01.641Z,46.24
2018-09-20T14:47:31.795Z,46.36
2018-09-20T14:50:01.682Z,44.45
2018-09-20T14:52:31.794Z,44.98
2018-09-20T14:55:01.695Z,45.23
2018-09-20T14:57:31.827Z,45.27
2018-09-20T15:00:01.737Z,44.70
2018-09-20T15:02:31.774Z,43.96
2018-09-20T15:05:00.953Z,43.80
2018-09-20T15:07:30.046Z,44.28
2018-09-20T15:09:59.158Z,44.17
2018-09-20T15:12:28.303Z,42.59
2018-09-20T15:14:57.468Z,42.98
2018-09-20T15:17:26.561Z,44.62
2018-09-20T15:19:55.628Z,43.65
2018-09-20T15:22:24.773Z,43.99
2018-09-20T15:24:53.890Z,44.07
2018-09-20T15:27:23.058Z,45.20
2018-09-20T15:29:52.216Z,44.53
2018-09-20T15:32:21.415Z,44.51
2018-09-20T15:34:50.582Z,45.59
2018-09-20T15:37:19.698Z,46.33
2018-09-20T15:39:49.014Z,46.94
2018-09-20T15:42:18.101Z,46.82
2018-09-20T15:44:47.235Z,47.08
2018-09-20T15:47:16.395Z,47.30
2018-09-20T15:50:16.302Z,48.70
2018-09-20T15:52:45.465Z,47.52
2018-09-20T15:55:14.777Z,48.22
2018-09-20T15:57:43.951Z,48.81
2018-09-20T16:00:13.401Z,48.44
2018-09-20T16:02:42.511Z,48.64
2018-09-20T16:05:11.675Z,48.53
2018-09-20T16:07:40.821Z,49.76
2018-09-20T16:10:10.010Z,48.61
2018-09-20T16:12:39.236Z,48.91
2018-09-20T16:15:09.331Z,49.76
2018-09-20T16:17:38.381Z,49.51
2018-09-20T16:20:08.124Z,49.97
2018-09-20T16:22:37.348Z,50.18
2018-09-20T16:25:06.802Z,50.06
2018-09-20T16:38:54.653Z,51.62
2018-09-20T16:41:39.171Z,52.56
2018-09-20T16:44:15.389Z,52.21
2018-09-20T16:46:48.586Z,52.94
2018-09-20T16:49:19.745Z,53.16
2018-09-20T16:51:50.769Z,53.60
2018-09-20T16:54:22.736Z,53.34
2018-09-20T16:56:51.953Z,54.02
2018-09-20T16:59:21.545Z,53.83
2018-09-20T17:01:50.788Z,54.03
2018-09-20T17:04:25.664Z,53.85
2018-09-20T17:06:54.911Z,54.57
2018-09-20T17:09:26.650Z,55.14
2018-09-20T17:11:57.701Z,55.67
2018-09-20T17:14:28.745Z,56.11
2018-09-20T17:17:00.103Z,55.98
2018-09-20T17:19:31.939Z,56.52
2018-09-20T17:22:09.271Z,57.46
2018-09-20T17:24:38.675Z,58.04
2018-09-20T17:27:10.025Z,58.42
2018-09-20T17:29:39.269Z,58.91
2018-09-20T17:34:47.223Z,60.74
2018-09-20T17:37:17.903Z,60.64
2018-09-20T17:39:50.846Z,60.93
2018-09-20T17:42:21.685Z,61.84
2018-09-20T17:44:56.056Z,62.74
2018-09-20T17:47:27.944Z,62.70
2018-09-20T17:49:57.188Z,63.56
2018-09-20T17:52:29.771Z,64.67
2018-09-20T17:55:03.680Z,64.29
2018-09-20T18:02:39.613Z,66.58
2018-09-20T18:05:08.918Z,67.32
2018-09-20T18:07:40.030Z,67.29
2018-09-20T18:10:19.526Z,68.51
2018-09-20T18:12:50.923Z,68.51
2018-09-20T18:15:21.956Z,68.89
2018-09-20T18:17:55.091Z,70.26
2018-09-20T18:20:24.702Z,69.93
2018-09-20T18:22:54.016Z,70.79
2018-09-20T18:25:23.586Z,70.60
2018-09-20T18:27:57.911Z,70.94
2018-09-20T18:30:27.868Z,71.03
2018-09-20T18:32:58.889Z,71.61
2018-09-20T18:35:28.642Z,71.67
2018-09-20T18:37:58.282Z,72.56
2018-09-20T18:40:28.322Z,72.30
2018-09-20T18:43:00.290Z,73.41
2018-09-20T18:45:30.173Z,73.77
2018-09-20T18:47:59.619Z,73.89
2018-09-20T18:50:29.270Z,74.02
2018-09-20T18:52:58.691Z,74.77
2018-09-20T18:55:28.509Z,74.30
2018-09-20T18:57:57.856Z,74.64
2018-09-20T19:00:30.811Z,75.24
2018-09-20T19:03:00.140Z,75.90
2018-09-20T19:05:30.061Z,75.84
2018-09-20T19:07:59.576Z,76.27
2018-09-20T19:10:29.498Z,76.24
2018-09-20T19:12:59.130Z,76.50
2018-09-20T19:15:28.685Z,76.87
2018-09-20T19:17:58.319Z,77.73
2018-09-20T19:20:28.323Z,77.38
2018-09-20T19:22:57.891Z,78.01
2018-09-20T19:25:29.686Z,77.61
2018-09-20T19:27:59.255Z,78.67
2018-09-20T19:30:29.263Z,79.06
2018-09-20T19:33:00.877Z,78.75
2018-09-20T19:35:30.763Z,78.98
2018-09-20T19:38:00.345Z,79.21
2018-09-20T19:40:31.808Z,79.94
2018-09-20T19:43:01.206Z,79.35
2018-09-20T19:45:34.825Z,79.59
2018-09-20T20:01:17.430Z,80.25
2018-09-20T20:03:46.702Z,81.06
2018-09-20T20:06:16.246Z,80.47
2018-09-20T20:08:45.676Z,80.48
2018-09-20T20:11:18.129Z,80.23
2018-09-20T20:13:47.484Z,81.40
2018-09-20T20:16:17.107Z,81.20
2018-09-20T20:18:51.768Z,81.45
2018-09-20T20:21:21.401Z,81.41
2018-09-20T20:23:50.689Z,81.06
2018-09-20T20:26:20.601Z,81.24
2018-09-20T20:28:49.837Z,81.02
2018-09-20T20:31:19.491Z,81.48
2018-09-20T20:33:49.615Z,81.58
2018-09-20T20:38:55.061Z,82.16
2018-09-20T20:41:24.569Z,82.42
2018-09-20T20:43:54.254Z,82.42
2018-09-20T20:46:23.859Z,82.19
2018-09-20T20:48:54.756Z,83.16
2018-09-20T20:51:24.353Z,81.96
2018-09-20T20:53:58.850Z,82.24
2018-09-20T20:56:34.913Z,82.81
2018-09-20T20:59:05.939Z,82.64
2018-09-20T21:06:47.075Z,83.12
2018-09-20T21:09:16.206Z,83.25
2018-09-20T21:11:45.367Z,82.69
2018-09-20T21:14:14.539Z,82.73
2018-09-20T21:16:43.764Z,82.62
2018-09-20T21:19:12.919Z,83.44
2018-09-20T21:21:42.049Z,82.99
2018-09-20T21:24:11.190Z,82.99
2018-09-20T21:26:40.364Z,83.24
2018-09-20T21:29:09.542Z,83.69
2018-09-20T21:31:38.768Z,83.20
2018-09-20T21:34:07.921Z,83.05
2018-09-20T21:36:37.135Z,83.20
2018-09-20T21:39:09.265Z,83.51
2018-09-20T21:41:38.638Z,83.38
2018-09-20T21:44:07.826Z,83.76
2018-09-20T21:46:37.121Z,84.29
2018-09-20T21:49:06.294Z,84.52
2018-09-20T21:51:36.275Z,84.33
2018-09-20T21:54:06.275Z,84.15
2018-09-20T21:56:36.263Z,84.17
2018-09-20T21:59:09.188Z,85.01
2018-09-20T22:01:43.585Z,84.68
2018-09-20T22:04:12.724Z,83.98
2018-09-20T22:06:41.853Z,84.64
2018-09-20T22:09:12.299Z,84.99
2018-09-20T22:11:41.897Z,84.47
2018-09-20T22:14:11.040Z,85.21
2018-09-20T22:16:40.264Z,84.64
2018-09-20T22:19:09.420Z,85.13
2018-09-20T22:21:38.612Z,84.72
2018-09-20T22:24:07.775Z,84.21
2018-09-20T22:26:36.993Z,85.14
2018-09-20T22:29:06.606Z,84.65
2018-09-20T22:31:36.702Z,85.00
2018-09-20T22:34:07.160Z,84.86
2018-09-20T22:36:36.686Z,84.53
2018-09-20T22:39:09.539Z,85.46
2018-09-20T22:41:39.255Z,85.52
2018-09-20T22:44:08.486Z,85.53
2018-09-20T22:46:37.667Z,86.02
2018-09-20T22:49:06.869Z,85.94
2018-09-20T22:51:36.660Z,85.89
2018-09-20T22:54:06.788Z,86.18
2018-09-20T22:56:36.715Z,86.01
2018-09-20T22:59:06.879Z,85.32
2018-09-20T23:01:36.678Z,85.97
2018-09-20T23:04:06.845Z,85.66
2018-09-20T23:06:36.770Z,85.62
2018-09-20T23:09:08.528Z,85.79
2018-09-20T23:11:37.787Z,85.37
2018-09-20T23:14:07.071Z,85.78
2018-09-20T23:16:36.908Z,86.25
2018-09-20T23:19:07.624Z,85.86
2018-09-20T23:21:36.960Z,86.41
2018-09-20T23:24:06.925Z,86.73
2018-09-20T23:26:36.970Z,86.39
2018-09-20T23:29:07.040Z,86.85
2018-09-20T23:31:36.977Z,86.31
2018-09-20T23:34:06.957Z,86.72
2018-09-20T23:36:37.025Z,86.90
2018-09-20T23:39:09.535Z,86.72
2018-09-20T23:41:38.699Z,87.11
2018-09-20T23:44:08.331Z,87.58
2018-09-20T23:46:37.844Z,87.06
2018-09-20T23:49:07.168Z,86.88
2018-09-20T23:51:37.229Z,87.04
2018-09-20T23:54:07.293Z,86.97
2018-09-20T23:56:37.241Z,87.33
2018-09-20T23:59:08.054Z,87.36
